sensor_id;sensor_type;location;lat;lon;timestamp;temperature;humidity
11599;DHT22;5855;48.840;9.188;2024-03-02T00:00:38;5.90;99.90
11599;DHT22;5855;48.840;9.188;2024-03-02T00:03:07;5.90;99.90
11599;DHT22;5855;48.840;9.188;2024-03-02T00:05:36;5.90;99.90
11599;DHT22;5855;48.840;9.188;2024-03-02T00:08:07;5.90;99.90
11599;DHT22;5855;48.840;9.188;2024-03-02T00:10:37;5.90;99.90
11599;DHT22;5855;48.840;9.188;2024-03-02T00:13:05;5.90;99.90
11599;DHT22;5855;48.840;9.188;2024-03-02T00:15:46;5.80;99.90
11599;DHT22;5855;48.840;9.188;2024-03-02T00:18:18;5.80;99.90
11599;DHT22;5855;48.840;9.188;2024-03-02T00:20:46;5.80;99.90
11599;DHT22;5855;48.840;9.188;2024-03-02T00:23:15;5.80;99.90
11599;DHT22;5855;48.840;9.188;2024-03-02T00:25:44;5.70;99.90
11599;DHT22;5855;48.840;9.188;2024-03-02T00:28:16;5.70;99.90
11599;DHT22;5855;48.840;9.188;2024-03-02T00:30:57;5.70;99.90
11599;DHT22;5855;48.840;9.188;2024-03-02T00:33:26;5.70;99.90
11599;DHT22;5855;48.840;9.188;2024-03-02T00:35:55;5.70;99.90
11599;DHT22;5855;48.840;9.188;2024-03-02T00:38:23;5.70;99.90
11599;DHT22;5855;48.840;9.188;2024-03-02T00:40:50;5.70;99.90
11599;DHT22;5855;48.840;9.188;2024-03-02T00:43:41;5.70;99.90
11599;DHT22;5855;48.840;9.188;2024-03-02T00:46:08;5.70;99.90
11599;DHT22;5855;48.840;9.188;2024-03-02T00:48:36;5.80;99.90
11599;DHT22;5855;48.840;9.188;2024-03-02T00:51:04;5.80;99.90
11599;DHT22;5855;48.840;9.188;2024-03-02T00:53:31;5.80;99.90
11599;DHT22;5855;48.840;9.188;2024-03-02T00:55:59;5.80;99.90
11599;DHT22;5855;48.840;9.188;2024-03-02T00:58:27;5.80;99.90
11599;DHT22;5855;48.840;9.188;2024-03-02T01:00:54;5.80;99.90
11599;DHT22;5855;48.840;9.188;2024-03-02T01:03:21;5.70;99.90
11599;DHT22;5855;48.840;9.188;2024-03-02T01:05:48;5.70;99.90
11599;DHT22;5855;48.840;9.188;2024-03-02T01:08:16;5.70;99.90
11599;DHT22;5855;48.840;9.188;2024-03-02T01:10:43;5.70;99.90
11599;DHT22;5855;48.840;9.188;2024-03-02T01:13:13;5.70;99.90
11599;DHT22;5855;48.840;9.188;2024-03-02T01:15:40;5.70;99.90
11599;DHT22;5855;48.840;9.188;2024-03-02T01:18:07;5.70;99.90
11599;DHT22;5855;48.840;9.188;2024-03-02T01:20:34;5.70;99.90
11599;DHT22;5855;48.840;9.188;2024-03-02T01:23:03;5.70;99.90
11599;DHT22;5855;48.840;9.188;2024-03-02T01:25:31;5.60;99.90
11599;DHT22;5855;48.840;9.188;2024-03-02T01:27:58;5.60;99.90
11599;DHT22;5855;48.840;9.188;2024-03-02T01:30:25;5.60;99.90
11599;DHT22;5855;48.840;9.188;2024-03-02T01:32:52;5.60;99.90
11599;DHT22;5855;48.840;9.188;2024-03-02T01:35:19;5.60;99.90
11599;DHT22;5855;48.840;9.188;2024-03-02T01:37:45;5.60;99.90
11599;DHT22;5855;48.840;9.188;2024-03-02T01:40:12;5.60;99.90
11599;DHT22;5855;48.840;9.188;2024-03-02T01:42:40;5.70;99.90
11599;DHT22;5855;48.840;9.188;2024-03-02T01:45:08;5.60;99.90
11599;DHT22;5855;48.840;9.188;2024-03-02T01:47:35;5.60;99.90
11599;DHT22;5855;48.840;9.188;2024-03-02T01:50:02;5.60;99.90
11599;DHT22;5855;48.840;9.188;2024-03-02T01:52:29;5.50;99.90
11599;DHT22;5855;48.840;9.188;2024-03-02T01:54:56;5.40;99.90
11599;DHT22;5855;48.840;9.188;2024-03-02T01:57:23;5.30;99.90
11599;DHT22;5855;48.840;9.188;2024-03-02T01:59:52;5.20;99.90
11599;DHT22;5855;48.840;9.188;2024-03-02T02:02:18;5.20;99.90
11599;DHT22;5855;48.840;9.188;2024-03-02T02:04:46;5.10;99.90
11599;DHT22;5855;48.840;9.188;2024-03-02T02:07:12;5.10;99.90
11599;DHT22;5855;48.840;9.188;2024-03-02T02:09:40;5.10;99.90
11599;DHT22;5855;48.840;9.188;2024-03-02T02:12:08;5.00;99.90
11599;DHT22;5855;48.840;9.188;2024-03-02T02:14:35;5.00;99.90
11599;DHT22;5855;48.840;9.188;2024-03-02T02:17:04;4.90;99.90
11599;DHT22;5855;48.840;9.188;2024-03-02T02:19:31;4.90;99.90
11599;DHT22;5855;48.840;9.188;2024-03-02T02:21:59;4.80;99.90
11599;DHT22;5855;48.840;9.188;2024-03-02T02:24:26;4.80;99.90
11599;DHT22;5855;48.840;9.188;2024-03-02T02:26:53;4.70;99.90
11599;DHT22;5855;48.840;9.188;2024-03-02T02:29:20;4.70;99.90
11599;DHT22;5855;48.840;9.188;2024-03-02T02:31:47;4.70;99.90
11599;DHT22;5855;48.840;9.188;2024-03-02T02:34:14;4.60;99.90
11599;DHT22;5855;48.840;9.188;2024-03-02T02:36:41;4.60;99.90
11599;DHT22;5855;48.840;9.188;2024-03-02T02:39:13;4.60;99.90
11599;DHT22;5855;48.840;9.188;2024-03-02T02:41:42;4.60;99.90
11599;DHT22;5855;48.840;9.188;2024-03-02T02:44:09;4.50;99.90
11599;DHT22;5855;48.840;9.188;2024-03-02T02:46:38;4.60;99.90
11599;DHT22;5855;48.840;9.188;2024-03-02T02:49:05;4.60;99.90
11599;DHT22;5855;48.840;9.188;2024-03-02T02:51:32;4.70;99.90
11599;DHT22;5855;48.840;9.188;2024-03-02T02:53:59;4.60;99.90
11599;DHT22;5855;48.840;9.188;2024-03-02T02:56:27;4.60;99.90
11599;DHT22;5855;48.840;9.188;2024-03-02T02:58:54;4.60;99.90
11599;DHT22;5855;48.840;9.188;2024-03-02T03:01:21;4.50;99.90
11599;DHT22;5855;48.840;9.188;2024-03-02T03:03:48;4.50;99.90
11599;DHT22;5855;48.840;9.188;2024-03-02T03:06:14;4.50;99.90
11599;DHT22;5855;48.840;9.188;2024-03-02T03:08:40;4.40;99.90
11599;DHT22;5855;48.840;9.188;2024-03-02T03:11:07;4.40;99.90
11599;DHT22;5855;48.840;9.188;2024-03-02T03:13:36;4.30;99.90
11599;DHT22;5855;48.840;9.188;2024-03-02T03:16:03;4.30;99.90
11599;DHT22;5855;48.840;9.188;2024-03-02T03:18:33;4.30;99.90
11599;DHT22;5855;48.840;9.188;2024-03-02T03:21:00;4.20;99.90
11599;DHT22;5855;48.840;9.188;2024-03-02T03:23:27;4.20;99.90
11599;DHT22;5855;48.840;9.188;2024-03-02T03:25:54;4.30;99.90
11599;DHT22;5855;48.840;9.188;2024-03-02T03:28:21;4.30;99.90
11599;DHT22;5855;48.840;9.188;2024-03-02T03:30:49;4.20;99.90
11599;DHT22;5855;48.840;9.188;2024-03-02T03:33:16;4.20;99.90
11599;DHT22;5855;48.840;9.188;2024-03-02T03:35:46;4.20;99.90
11599;DHT22;5855;48.840;9.188;2024-03-02T03:38:13;4.20;99.90
11599;DHT22;5855;48.840;9.188;2024-03-02T03:40:40;4.30;99.90
11599;DHT22;5855;48.840;9.188;2024-03-02T03:43:07;4.30;99.90
11599;DHT22;5855;48.840;9.188;2024-03-02T03:45:34;4.30;99.90
11599;DHT22;5855;48.840;9.188;2024-03-02T03:48:03;4.30;99.90
11599;DHT22;5855;48.840;9.188;2024-03-02T03:50:29;4.20;99.90
11599;DHT22;5855;48.840;9.188;2024-03-02T03:52:56;4.20;99.90
11599;DHT22;5855;48.840;9.188;2024-03-02T03:55:23;4.10;99.90
11599;DHT22;5855;48.840;9.188;2024-03-02T03:57:50;4.10;99.90
11599;DHT22;5855;48.840;9.188;2024-03-02T04:00:16;4.00;99.90
11599;DHT22;5855;48.840;9.188;2024-03-02T04:02:43;4.00;99.90
11599;DHT22;5855;48.840;9.188;2024-03-02T04:05:11;4.00;99.90
11599;DHT22;5855;48.840;9.188;2024-03-02T04:07:38;4.00;99.90
11599;DHT22;5855;48.840;9.188;2024-03-02T04:10:09;4.00;99.90
11599;DHT22;5855;48.840;9.188;2024-03-02T04:12:38;4.00;99.90
11599;DHT22;5855;48.840;9.188;2024-03-02T04:15:06;3.90;99.90
11599;DHT22;5855;48.840;9.188;2024-03-02T04:17:33;3.90;99.90
11599;DHT22;5855;48.840;9.188;2024-03-02T04:20:01;3.90;99.90
11599;DHT22;5855;48.840;9.188;2024-03-02T04:22:33;3.80;99.90
11599;DHT22;5855;48.840;9.188;2024-03-02T04:25:01;3.70;99.90
11599;DHT22;5855;48.840;9.188;2024-03-02T04:27:30;3.70;99.90
11599;DHT22;5855;48.840;9.188;2024-03-02T04:29:57;3.70;99.90
11599;DHT22;5855;48.840;9.188;2024-03-02T04:32:25;3.70;99.90
11599;DHT22;5855;48.840;9.188;2024-03-02T04:34:52;3.60;99.90
11599;DHT22;5855;48.840;9.188;2024-03-02T04:37:19;3.60;99.90
11599;DHT22;5855;48.840;9.188;2024-03-02T04:39:48;3.60;99.90
11599;DHT22;5855;48.840;9.188;2024-03-02T04:42:15;3.60;99.90
11599;DHT22;5855;48.840;9.188;2024-03-02T04:44:42;3.60;99.90
11599;DHT22;5855;48.840;9.188;2024-03-02T04:47:09;3.60;99.90
11599;DHT22;5855;48.840;9.188;2024-03-02T04:49:36;3.60;99.90
11599;DHT22;5855;48.840;9.188;2024-03-02T04:52:04;3.60;99.90
11599;DHT22;5855;48.840;9.188;2024-03-02T04:54:31;3.60;99.90
11599;DHT22;5855;48.840;9.188;2024-03-02T04:56:59;3.60;99.90
11599;DHT22;5855;48.840;9.188;2024-03-02T04:59:26;3.50;99.90
11599;DHT22;5855;48.840;9.188;2024-03-02T05:01:52;3.50;99.90
11599;DHT22;5855;48.840;9.188;2024-03-02T05:04:19;3.50;99.90
11599;DHT22;5855;48.840;9.188;2024-03-02T05:06:46;3.50;99.90
11599;DHT22;5855;48.840;9.188;2024-03-02T05:09:18;3.50;99.90
11599;DHT22;5855;48.840;9.188;2024-03-02T05:11:44;3.50;99.90
11599;DHT22;5855;48.840;9.188;2024-03-02T05:14:36;3.50;99.90
11599;DHT22;5855;48.840;9.188;2024-03-02T05:17:03;3.50;99.90
11599;DHT22;5855;48.840;9.188;2024-03-02T05:19:30;3.60;99.90
11599;DHT22;5855;48.840;9.188;2024-03-02T05:21:56;3.60;99.90
11599;DHT22;5855;48.840;9.188;2024-03-02T05:24:23;3.70;99.90
11599;DHT22;5855;48.840;9.188;2024-03-02T05:26:52;3.60;99.90
11599;DHT22;5855;48.840;9.188;2024-03-02T05:29:19;3.70;99.90
11599;DHT22;5855;48.840;9.188;2024-03-02T05:31:47;3.70;99.90
11599;DHT22;5855;48.840;9.188;2024-03-02T05:34:14;3.70;99.90
11599;DHT22;5855;48.840;9.188;2024-03-02T05:36:41;3.70;99.90
11599;DHT22;5855;48.840;9.188;2024-03-02T05:39:08;3.70;99.90
11599;DHT22;5855;48.840;9.188;2024-03-02T05:41:39;3.70;99.90
11599;DHT22;5855;48.840;9.188;2024-03-02T05:44:05;3.70;99.90
11599;DHT22;5855;48.840;9.188;2024-03-02T05:46:32;3.60;99.90
11599;DHT22;5855;48.840;9.188;2024-03-02T05:49:01;3.60;99.90
11599;DHT22;5855;48.840;9.188;2024-03-02T05:51:27;3.60;99.90
11599;DHT22;5855;48.840;9.188;2024-03-02T05:53:54;3.60;99.90
11599;DHT22;5855;48.840;9.188;2024-03-02T05:56:21;3.60;99.90
11599;DHT22;5855;48.840;9.188;2024-03-02T05:58:48;3.60;99.90
11599;DHT22;5855;48.840;9.188;2024-03-02T06:01:26;3.50;99.90
11599;DHT22;5855;48.840;9.188;2024-03-02T06:03:55;3.50;99.90
11599;DHT22;5855;48.840;9.188;2024-03-02T06:06:23;3.50;99.90
11599;DHT22;5855;48.840;9.188;2024-03-02T06:08:50;3.50;99.90
11599;DHT22;5855;48.840;9.188;2024-03-02T06:11:18;3.50;99.90
11599;DHT22;5855;48.840;9.188;2024-03-02T06:13:45;3.60;99.90
11599;DHT22;5855;48.840;9.188;2024-03-02T06:16:15;3.60;99.90
11599;DHT22;5855;48.840;9.188;2024-03-02T06:18:42;3.60;99.90
11599;DHT22;5855;48.840;9.188;2024-03-02T06:21:09;3.60;99.90
11599;DHT22;5855;48.840;9.188;2024-03-02T06:23:37;3.60;99.90
11599;DHT22;5855;48.840;9.188;2024-03-02T06:26:04;3.60;99.90
11599;DHT22;5855;48.840;9.188;2024-03-02T06:28:31;3.60;99.90
11599;DHT22;5855;48.840;9.188;2024-03-02T06:31:01;3.60;99.90
11599;DHT22;5855;48.840;9.188;2024-03-02T06:33:31;3.70;99.90
11599;DHT22;5855;48.840;9.188;2024-03-02T06:36:01;3.80;99.90
11599;DHT22;5855;48.840;9.188;2024-03-02T06:38:29;3.80;99.90
11599;DHT22;5855;48.840;9.188;2024-03-02T06:40:59;3.90;99.90
11599;DHT22;5855;48.840;9.188;2024-03-02T06:43:27;3.90;99.90
11599;DHT22;5855;48.840;9.188;2024-03-02T06:45:54;3.90;99.90
11599;DHT22;5855;48.840;9.188;2024-03-02T06:48:23;4.00;99.90
11599;DHT22;5855;48.840;9.188;2024-03-02T06:50:50;4.10;99.90
11599;DHT22;5855;48.840;9.188;2024-03-02T06:53:21;4.10;99.90
11599;DHT22;5855;48.840;9.188;2024-03-02T06:55:48;4.10;99.90
11599;DHT22;5855;48.840;9.188;2024-03-02T06:58:16;4.20;99.90
11599;DHT22;5855;48.840;9.188;2024-03-02T07:00:43;4.30;99.90
11599;DHT22;5855;48.840;9.188;2024-03-02T07:03:13;4.40;99.90
11599;DHT22;5855;48.840;9.188;2024-03-02T07:05:40;4.40;99.90
11599;DHT22;5855;48.840;9.188;2024-03-02T07:08:07;4.50;99.90
11599;DHT22;5855;48.840;9.188;2024-03-02T07:10:34;4.60;99.90
11599;DHT22;5855;48.840;9.188;2024-03-02T07:13:01;4.60;99.90
11599;DHT22;5855;48.840;9.188;2024-03-02T07:15:29;4.70;99.90
11599;DHT22;5855;48.840;9.188;2024-03-02T07:18:12;4.80;99.90
11599;DHT22;5855;48.840;9.188;2024-03-02T07:20:39;4.80;99.90
11599;DHT22;5855;48.840;9.188;2024-03-02T07:23:06;4.90;99.90
11599;DHT22;5855;48.840;9.188;2024-03-02T07:25:34;5.00;99.90
11599;DHT22;5855;48.840;9.188;2024-03-02T07:28:00;5.10;99.90
11599;DHT22;5855;48.840;9.188;2024-03-02T07:30:29;5.20;99.90
11599;DHT22;5855;48.840;9.188;2024-03-02T07:32:56;5.30;99.90
11599;DHT22;5855;48.840;9.188;2024-03-02T07:35:24;5.40;99.90
11599;DHT22;5855;48.840;9.188;2024-03-02T07:37:53;5.50;99.90
11599;DHT22;5855;48.840;9.188;2024-03-02T07:40:22;5.60;99.90
11599;DHT22;5855;48.840;9.188;2024-03-02T07:42:49;5.60;99.90
11599;DHT22;5855;48.840;9.188;2024-03-02T07:45:20;5.70;99.90
11599;DHT22;5855;48.840;9.188;2024-03-02T07:47:51;5.80;99.90
11599;DHT22;5855;48.840;9.188;2024-03-02T07:50:19;5.90;99.90
11599;DHT22;5855;48.840;9.188;2024-03-02T07:52:46;5.90;99.90
11599;DHT22;5855;48.840;9.188;2024-03-02T07:55:15;6.00;99.90
11599;DHT22;5855;48.840;9.188;2024-03-02T07:57:44;6.10;99.90
11599;DHT22;5855;48.840;9.188;2024-03-02T08:00:13;6.10;99.90
11599;DHT22;5855;48.840;9.188;2024-03-02T08:02:43;6.20;99.90
11599;DHT22;5855;48.840;9.188;2024-03-02T08:05:12;6.20;99.90
11599;DHT22;5855;48.840;9.188;2024-03-02T08:07:39;6.20;99.90
11599;DHT22;5855;48.840;9.188;2024-03-02T08:10:12;6.30;99.90
11599;DHT22;5855;48.840;9.188;2024-03-02T08:12:39;6.30;99.90
11599;DHT22;5855;48.840;9.188;2024-03-02T08:15:07;6.30;99.90
11599;DHT22;5855;48.840;9.188;2024-03-02T08:17:34;6.30;99.90
11599;DHT22;5855;48.840;9.188;2024-03-02T08:20:05;6.30;99.90
11599;DHT22;5855;48.840;9.188;2024-03-02T08:22:35;6.40;99.90
11599;DHT22;5855;48.840;9.188;2024-03-02T08:25:02;6.40;99.90
11599;DHT22;5855;48.840;9.188;2024-03-02T08:27:28;6.40;99.90
11599;DHT22;5855;48.840;9.188;2024-03-02T08:29:55;6.50;99.90
11599;DHT22;5855;48.840;9.188;2024-03-02T08:32:22;6.60;99.90
11599;DHT22;5855;48.840;9.188;2024-03-02T08:34:51;6.70;99.90
11599;DHT22;5855;48.840;9.188;2024-03-02T08:37:19;6.90;99.90
11599;DHT22;5855;48.840;9.188;2024-03-02T08:39:47;7.00;99.90
11599;DHT22;5855;48.840;9.188;2024-03-02T08:42:14;7.20;99.90
11599;DHT22;5855;48.840;9.188;2024-03-02T08:44:41;7.40;99.90
11599;DHT22;5855;48.840;9.188;2024-03-02T08:47:07;7.60;99.90
11599;DHT22;5855;48.840;9.188;2024-03-02T08:49:35;7.80;99.90
11599;DHT22;5855;48.840;9.188;2024-03-02T08:52:02;8.00;99.90
11599;DHT22;5855;48.840;9.188;2024-03-02T08:54:29;8.30;99.90
11599;DHT22;5855;48.840;9.188;2024-03-02T08:57:01;8.50;99.90
11599;DHT22;5855;48.840;9.188;2024-03-02T08:59:28;8.70;99.90
11599;DHT22;5855;48.840;9.188;2024-03-02T09:01:58;8.90;99.90
11599;DHT22;5855;48.840;9.188;2024-03-02T09:04:25;9.20;99.90
11599;DHT22;5855;48.840;9.188;2024-03-02T09:06:52;9.30;99.90
11599;DHT22;5855;48.840;9.188;2024-03-02T09:09:21;9.60;99.90
11599;DHT22;5855;48.840;9.188;2024-03-02T09:11:48;9.80;99.90
11599;DHT22;5855;48.840;9.188;2024-03-02T09:14:20;9.90;99.90
11599;DHT22;5855;48.840;9.188;2024-03-02T09:16:50;10.10;99.90
11599;DHT22;5855;48.840;9.188;2024-03-02T09:19:17;10.20;99.90
11599;DHT22;5855;48.840;9.188;2024-03-02T09:21:44;10.50;99.90
11599;DHT22;5855;48.840;9.188;2024-03-02T09:24:17;10.70;99.90
11599;DHT22;5855;48.840;9.188;2024-03-02T09:26:44;10.90;99.90
11599;DHT22;5855;48.840;9.188;2024-03-02T09:29:11;11.00;99.90
11599;DHT22;5855;48.840;9.188;2024-03-02T09:31:41;11.30;99.90
11599;DHT22;5855;48.840;9.188;2024-03-02T09:34:11;11.40;99.90
11599;DHT22;5855;48.840;9.188;2024-03-02T09:36:39;11.60;99.90
11599;DHT22;5855;48.840;9.188;2024-03-02T09:39:07;11.60;99.90
11599;DHT22;5855;48.840;9.188;2024-03-02T09:41:35;11.80;99.90
11599;DHT22;5855;48.840;9.188;2024-03-02T09:44:06;12.00;99.90
11599;DHT22;5855;48.840;9.188;2024-03-02T09:46:33;12.10;99.90
11599;DHT22;5855;48.840;9.188;2024-03-02T09:49:03;12.40;99.90
11599;DHT22;5855;48.840;9.188;2024-03-02T09:51:31;12.60;99.90
11599;DHT22;5855;48.840;9.188;2024-03-02T09:54:01;12.80;99.90
11599;DHT22;5855;48.840;9.188;2024-03-02T09:56:31;13.10;99.90
11599;DHT22;5855;48.840;9.188;2024-03-02T09:58:57;13.30;99.90
11599;DHT22;5855;48.840;9.188;2024-03-02T10:01:24;13.50;99.90
11599;DHT22;5855;48.840;9.188;2024-03-02T10:03:52;13.80;99.90
11599;DHT22;5855;48.840;9.188;2024-03-02T10:06:22;13.90;99.90
11599;DHT22;5855;48.840;9.188;2024-03-02T10:08:49;14.10;99.90
11599;DHT22;5855;48.840;9.188;2024-03-02T10:11:28;14.30;99.90
11599;DHT22;5855;48.840;9.188;2024-03-02T10:14:11;14.60;99.90
11599;DHT22;5855;48.840;9.188;2024-03-02T10:16:40;14.80;99.90
11599;DHT22;5855;48.840;9.188;2024-03-02T10:19:19;14.90;99.90
11599;DHT22;5855;48.840;9.188;2024-03-02T10:21:48;14.90;99.90
11599;DHT22;5855;48.840;9.188;2024-03-02T10:24:18;15.10;99.90
11599;DHT22;5855;48.840;9.188;2024-03-02T10:26:46;15.30;99.90
11599;DHT22;5855;48.840;9.188;2024-03-02T10:29:13;15.60;99.90
11599;DHT22;5855;48.840;9.188;2024-03-02T10:31:44;15.80;99.90
11599;DHT22;5855;48.840;9.188;2024-03-02T10:34:12;16.00;99.90
11599;DHT22;5855;48.840;9.188;2024-03-02T10:36:41;16.40;99.90
11599;DHT22;5855;48.840;9.188;2024-03-02T10:39:10;16.90;99.90
11599;DHT22;5855;48.840;9.188;2024-03-02T10:41:37;16.90;99.90
11599;DHT22;5855;48.840;9.188;2024-03-02T10:44:07;17.10;99.90
11599;DHT22;5855;48.840;9.188;2024-03-02T10:46:36;17.50;98.80
11599;DHT22;5855;48.840;9.188;2024-03-02T10:49:06;17.40;99.30
11599;DHT22;5855;48.840;9.188;2024-03-02T10:51:33;17.60;97.90
11599;DHT22;5855;48.840;9.188;2024-03-02T10:54:02;17.70;98.60
11599;DHT22;5855;48.840;9.188;2024-03-02T10:56:34;17.70;97.90
11599;DHT22;5855;48.840;9.188;2024-03-02T10:59:16;18.10;97.00
11599;DHT22;5855;48.840;9.188;2024-03-02T11:01:47;18.50;96.80
11599;DHT22;5855;48.840;9.188;2024-03-02T11:04:25;19.00;94.90
11599;DHT22;5855;48.840;9.188;2024-03-02T11:06:56;19.80;93.50
11599;DHT22;5855;48.840;9.188;2024-03-02T11:09:27;19.70;93.20
11599;DHT22;5855;48.840;9.188;2024-03-02T11:12:12;19.60;92.10
11599;DHT22;5855;48.840;9.188;2024-03-02T11:14:43;20.40;91.50
11599;DHT22;5855;48.840;9.188;2024-03-02T11:17:13;20.30;89.90
11599;DHT22;5855;48.840;9.188;2024-03-02T11:19:43;20.80;89.10
11599;DHT22;5855;48.840;9.188;2024-03-02T11:22:12;20.80;89.10
11599;DHT22;5855;48.840;9.188;2024-03-02T11:24:48;21.70;83.60
11599;DHT22;5855;48.840;9.188;2024-03-02T11:30:51;21.90;74.90
11599;DHT22;5855;48.840;9.188;2024-03-02T11:33:26;21.60;75.60
11599;DHT22;5855;48.840;9.188;2024-03-02T11:35:57;22.10;74.00
11599;DHT22;5855;48.840;9.188;2024-03-02T11:38:33;22.90;70.70
11599;DHT22;5855;48.840;9.188;2024-03-02T11:41:01;22.90;64.70
11599;DHT22;5855;48.840;9.188;2024-03-02T11:43:28;23.00;63.20
11599;DHT22;5855;48.840;9.188;2024-03-02T11:46:00;23.20;62.80
11599;DHT22;5855;48.840;9.188;2024-03-02T11:48:30;23.70;58.10
11599;DHT22;5855;48.840;9.188;2024-03-02T11:50:58;23.80;58.00
11599;DHT22;5855;48.840;9.188;2024-03-02T11:53:29;24.10;55.30
11599;DHT22;5855;48.840;9.188;2024-03-02T11:55:59;24.10;51.10
11599;DHT22;5855;48.840;9.188;2024-03-02T11:58:28;24.00;53.20
11599;DHT22;5855;48.840;9.188;2024-03-02T12:00:55;24.40;48.00
11599;DHT22;5855;48.840;9.188;2024-03-02T12:03:24;24.00;46.90
11599;DHT22;5855;48.840;9.188;2024-03-02T12:05:55;23.40;46.70
11599;DHT22;5855;48.840;9.188;2024-03-02T12:08:22;22.70;46.10
11599;DHT22;5855;48.840;9.188;2024-03-02T12:10:57;22.30;46.90
11599;DHT22;5855;48.840;9.188;2024-03-02T12:13:26;21.80;48.30
11599;DHT22;5855;48.840;9.188;2024-03-02T12:15:54;22.80;47.70
11599;DHT22;5855;48.840;9.188;2024-03-02T12:18:30;23.10;44.20
11599;DHT22;5855;48.840;9.188;2024-03-02T12:20:59;23.40;43.70
11599;DHT22;5855;48.840;9.188;2024-03-02T12:23:30;23.70;43.40
11599;DHT22;5855;48.840;9.188;2024-03-02T12:25:56;23.50;42.60
11599;DHT22;5855;48.840;9.188;2024-03-02T12:28:24;23.80;42.10
11599;DHT22;5855;48.840;9.188;2024-03-02T12:30:58;24.20;40.90
11599;DHT22;5855;48.840;9.188;2024-03-02T12:33:31;24.30;40.30
11599;DHT22;5855;48.840;9.188;2024-03-02T12:36:06;24.60;39.50
11599;DHT22;5855;48.840;9.188;2024-03-02T12:38:37;24.70;38.20
11599;DHT22;5855;48.840;9.188;2024-03-02T12:41:29;25.20;38.50
11599;DHT22;5855;48.840;9.188;2024-03-02T12:43:58;25.00;36.20
11599;DHT22;5855;48.840;9.188;2024-03-02T12:46:25;25.50;36.90
11599;DHT22;5855;48.840;9.188;2024-03-02T12:49:16;26.20;33.00
11599;DHT22;5855;48.840;9.188;2024-03-02T12:52:14;27.60;33.20
11599;DHT22;5855;48.840;9.188;2024-03-02T12:55:00;28.50;29.00
11599;DHT22;5855;48.840;9.188;2024-03-02T12:57:30;28.80;27.50
11599;DHT22;5855;48.840;9.188;2024-03-02T13:00:07;27.10;28.10
11599;DHT22;5855;48.840;9.188;2024-03-02T13:02:35;28.40;26.80
11599;DHT22;5855;48.840;9.188;2024-03-02T13:05:12;28.90;26.60
11599;DHT22;5855;48.840;9.188;2024-03-02T13:07:39;28.60;25.30
11599;DHT22;5855;48.840;9.188;2024-03-02T13:10:12;28.70;26.10
11599;DHT22;5855;48.840;9.188;2024-03-02T13:12:47;29.80;24.10
11599;DHT22;5855;48.840;9.188;2024-03-02T13:15:16;29.90;23.70
11599;DHT22;5855;48.840;9.188;2024-03-02T13:17:46;31.60;21.40
11599;DHT22;5855;48.840;9.188;2024-03-02T13:20:16;28.90;22.60
11599;DHT22;5855;48.840;9.188;2024-03-02T13:22:44;29.50;22.90
11599;DHT22;5855;48.840;9.188;2024-03-02T13:25:15;30.50;22.00
11599;DHT22;5855;48.840;9.188;2024-03-02T13:27:45;29.80;21.40
11599;DHT22;5855;48.840;9.188;2024-03-02T13:30:12;29.70;21.80
11599;DHT22;5855;48.840;9.188;2024-03-02T13:32:44;31.60;19.80
11599;DHT22;5855;48.840;9.188;2024-03-02T13:35:18;31.70;19.40
11599;DHT22;5855;48.840;9.188;2024-03-02T13:37:47;31.00;19.20
11599;DHT22;5855;48.840;9.188;2024-03-02T13:40:17;30.60;19.80
11599;DHT22;5855;48.840;9.188;2024-03-02T13:42:45;31.90;19.30
11599;DHT22;5855;48.840;9.188;2024-03-02T13:45:13;33.70;17.10
11599;DHT22;5855;48.840;9.188;2024-03-02T13:48:44;33.80;14.90
11599;DHT22;5855;48.840;9.188;2024-03-02T13:51:06;34.30;15.70
11599;DHT22;5855;48.840;9.188;2024-03-02T13:53:35;35.40;14.30
11599;DHT22;5855;48.840;9.188;2024-03-02T13:56:02;37.10;11.90
11599;DHT22;5855;48.840;9.188;2024-03-02T13:58:35;38.10;9.80
11599;DHT22;5855;48.840;9.188;2024-03-02T14:01:04;37.20;8.90
11599;DHT22;5855;48.840;9.188;2024-03-02T14:03:32;38.60;8.00
11599;DHT22;5855;48.840;9.188;2024-03-02T14:06:05;39.20;7.00
11599;DHT22;5855;48.840;9.188;2024-03-02T14:08:34;38.90;5.60
11599;DHT22;5855;48.840;9.188;2024-03-02T14:11:01;35.70;6.80
11599;DHT22;5855;48.840;9.188;2024-03-02T14:13:28;34.60;7.80
11599;DHT22;5855;48.840;9.188;2024-03-02T14:15:55;34.00;8.50
11599;DHT22;5855;48.840;9.188;2024-03-02T14:18:23;34.60;9.00
11599;DHT22;5855;48.840;9.188;2024-03-02T14:20:50;34.60;7.80
11599;DHT22;5855;48.840;9.188;2024-03-02T14:23:18;35.40;7.40
11599;DHT22;5855;48.840;9.188;2024-03-02T14:25:49;34.10;7.80
11599;DHT22;5855;48.840;9.188;2024-03-02T14:28:19;33.50;8.00
11599;DHT22;5855;48.840;9.188;2024-03-02T14:30:50;33.70;8.50
11599;DHT22;5855;48.840;9.188;2024-03-02T14:33:20;33.30;8.70
11599;DHT22;5855;48.840;9.188;2024-03-02T14:35:47;34.50;8.30
11599;DHT22;5855;48.840;9.188;2024-03-02T14:38:14;36.40;6.60
11599;DHT22;5855;48.840;9.188;2024-03-02T14:40:44;36.30;5.90
11599;DHT22;5855;48.840;9.188;2024-03-02T14:43:13;35.20;6.80
11599;DHT22;5855;48.840;9.188;2024-03-02T14:45:40;36.10;6.40
11599;DHT22;5855;48.840;9.188;2024-03-02T14:48:07;37.90;5.70
11599;DHT22;5855;48.840;9.188;2024-03-02T14:50:35;36.90;5.80
11599;DHT22;5855;48.840;9.188;2024-03-02T14:53:03;37.80;5.10
11599;DHT22;5855;48.840;9.188;2024-03-02T14:55:32;36.20;5.20
11599;DHT22;5855;48.840;9.188;2024-03-02T14:58:00;36.00;5.60
11599;DHT22;5855;48.840;9.188;2024-03-02T15:00:29;35.90;6.00
11599;DHT22;5855;48.840;9.188;2024-03-02T15:02:58;37.50;4.80
11599;DHT22;5855;48.840;9.188;2024-03-02T15:05:25;32.90;5.80
11599;DHT22;5855;48.840;9.188;2024-03-02T15:08:06;32.60;7.00
11599;DHT22;5855;48.840;9.188;2024-03-02T15:10:33;33.30;6.40
11599;DHT22;5855;48.840;9.188;2024-03-02T15:13:01;35.00;5.80
11599;DHT22;5855;48.840;9.188;2024-03-02T15:15:30;35.00;5.50
11599;DHT22;5855;48.840;9.188;2024-03-02T15:17:57;32.60;5.60
11599;DHT22;5855;48.840;9.188;2024-03-02T15:20:24;30.60;7.20
11599;DHT22;5855;48.840;9.188;2024-03-02T15:22:51;29.90;8.80
11599;DHT22;5855;48.840;9.188;2024-03-02T15:25:18;30.50;7.50
11599;DHT22;5855;48.840;9.188;2024-03-02T15:27:44;30.50;8.30
11599;DHT22;5855;48.840;9.188;2024-03-02T15:30:12;30.00;8.40
11599;DHT22;5855;48.840;9.188;2024-03-02T15:32:43;28.30;9.30
11599;DHT22;5855;48.840;9.188;2024-03-02T15:35:10;26.80;10.50
11599;DHT22;5855;48.840;9.188;2024-03-02T15:37:39;26.50;11.60
11599;DHT22;5855;48.840;9.188;2024-03-02T15:40:13;25.00;12.90
11599;DHT22;5855;48.840;9.188;2024-03-02T15:42:40;23.70;13.50
11599;DHT22;5855;48.840;9.188;2024-03-02T15:45:11;22.90;14.60
11599;DHT22;5855;48.840;9.188;2024-03-02T15:47:42;21.50;15.60
11599;DHT22;5855;48.840;9.188;2024-03-02T15:50:09;20.20;17.60
11599;DHT22;5855;48.840;9.188;2024-03-02T15:52:37;20.10;18.70
11599;DHT22;5855;48.840;9.188;2024-03-02T15:55:04;19.20;19.90
11599;DHT22;5855;48.840;9.188;2024-03-02T15:57:31;18.70;21.10
11599;DHT22;5855;48.840;9.188;2024-03-02T15:59:58;18.00;22.80
11599;DHT22;5855;48.840;9.188;2024-03-02T16:02:25;17.50;23.20
11599;DHT22;5855;48.840;9.188;2024-03-02T16:04:56;17.70;23.70
11599;DHT22;5855;48.840;9.188;2024-03-02T16:07:28;17.70;24.80
11599;DHT22;5855;48.840;9.188;2024-03-02T16:09:55;17.10;26.30
11599;DHT22;5855;48.840;9.188;2024-03-02T16:12:22;17.10;27.10